sensor_id;sensor_type;location;lat;lon;timestamp;pressure;altitude;pressure_sealevel;temperature;humidity
14295;BME280;7231;59.370;18.016;2022-12-07T00:01:18;100755.22;;;-5.00;97.99
14295;BME280;7231;59.370;18.016;2022-12-07T00:03:48;100749.69;;;-5.04;98.14
14295;BME280;7231;59.370;18.016;2022-12-07T00:06:18;100759.16;;;-5.03;98.07
14295;BME280;7231;59.370;18.016;2022-12-07T00:08:47;100580.69;;;-6.06;97.91
14295;BME280;7231;59.370;18.016;2022-12-07T00:11:17;100756.47;;;-5.05;98.19
14295;BME280;7231;59.370;18.016;2022-12-07T00:13:45;100758.13;;;-5.05;98.12
14295;BME280;7231;59.370;18.016;2022-12-07T00:16:15;100760.69;;;-5.05;98.22
14295;BME280;7231;59.370;18.016;2022-12-07T00:18:44;100756.34;;;-5.06;98.21
14295;BME280;7231;59.370;18.016;2022-12-07T00:21:14;100758.88;;;-5.06;98.08
14295;BME280;7231;59.370;18.016;2022-12-07T00:23:45;100772.56;;;-5.06;98.03
14295;BME280;7231;59.370;18.016;2022-12-07T00:26:15;100758.88;;;-5.06;98.39
14295;BME280;7231;59.370;18.016;2022-12-07T00:28:45;100760.56;;;-5.07;98.46
14295;BME280;7231;59.370;18.016;2022-12-07T00:31:16;100684.75;;;-5.45;98.63
14295;BME280;7231;59.370;18.016;2022-12-07T00:33:45;100745.84;;;-5.09;98.62
14295;BME280;7231;59.370;18.016;2022-12-07T00:36:15;100745.84;;;-5.09;98.50
14295;BME280;7231;59.370;18.016;2022-12-07T00:38:52;100750.81;;;-5.11;98.67
14295;BME280;7231;59.370;18.016;2022-12-07T00:41:21;100733.16;;;-5.18;98.38
14295;BME280;7231;59.370;18.016;2022-12-07T00:43:50;100747.50;;;-5.10;98.43
14295;BME280;7231;59.370;18.016;2022-12-07T00:46:19;100745.84;;;-5.09;98.75
14295;BME280;7231;59.370;18.016;2022-12-07T00:48:48;100735.47;;;-5.11;98.46
14295;BME280;7231;59.370;18.016;2022-12-07T00:51:17;100730.38;;;-5.11;98.69
14295;BME280;7231;59.370;18.016;2022-12-07T00:53:46;100728.72;;;-5.10;98.66
14295;BME280;7231;59.370;18.016;2022-12-07T00:56:18;100725.41;;;-5.09;98.53
14295;BME280;7231;59.370;18.016;2022-12-07T00:58:50;100704.41;;;-5.26;98.55
14295;BME280;7231;59.370;18.016;2022-12-07T01:01:19;100725.53;;;-5.08;98.78
14295;BME280;7231;59.370;18.016;2022-12-07T01:03:46;100726.41;;;-5.07;98.81
14295;BME280;7231;59.370;18.016;2022-12-07T01:06:15;100726.28;;;-5.09;98.99
14295;BME280;7231;59.370;18.016;2022-12-07T01:08:44;100727.81;;;-5.11;98.63
14295;BME280;7231;59.370;18.016;2022-12-07T01:11:15;100727.69;;;-5.12;98.79
14295;BME280;7231;59.370;18.016;2022-12-07T01:13:43;100726.16;;;-5.10;98.91
14295;BME280;7231;59.370;18.016;2022-12-07T01:16:14;100722.69;;;-5.11;98.94
14295;BME280;7231;59.370;18.016;2022-12-07T01:18:45;100610.63;;;-5.84;98.59
14295;BME280;7231;59.370;18.016;2022-12-07T01:21:16;100682.47;;;-5.42;98.53
14295;BME280;7231;59.370;18.016;2022-12-07T01:23:44;100731.13;;;-5.12;98.84
14295;BME280;7231;59.370;18.016;2022-12-07T01:26:17;100733.56;;;-5.13;98.86
14295;BME280;7231;59.370;18.016;2022-12-07T01:28:46;100722.31;;;-5.15;99.01
14295;BME280;7231;59.370;18.016;2022-12-07T01:31:15;100723.97;;;-5.16;99.14
14295;BME280;7231;59.370;18.016;2022-12-07T01:33:48;100709.03;;;-5.21;99.34
14295;BME280;7231;59.370;18.016;2022-12-07T01:36:18;100715.13;;;-5.19;98.92
14295;BME280;7231;59.370;18.016;2022-12-07T01:38:48;100716.16;;;-5.17;98.71
14295;BME280;7231;59.370;18.016;2022-12-07T01:41:20;100718.72;;;-5.17;99.24
14295;BME280;7231;59.370;18.016;2022-12-07T01:44:08;100717.19;;;-5.15;99.30
14295;BME280;7231;59.370;18.016;2022-12-07T01:46:36;100674.94;;;-5.41;98.63
14295;BME280;7231;59.370;18.016;2022-12-07T01:49:06;100717.06;;;-5.17;98.92
14295;BME280;7231;59.370;18.016;2022-12-07T01:51:37;100721.28;;;-5.17;99.18
14295;BME280;7231;59.370;18.016;2022-12-07T01:54:07;100719.47;;;-5.18;98.83
14295;BME280;7231;59.370;18.016;2022-12-07T01:56:37;100726.25;;;-5.19;99.29
14295;BME280;7231;59.370;18.016;2022-12-07T01:59:06;100716.91;;;-5.18;98.93
14295;BME280;7231;59.370;18.016;2022-12-07T02:01:35;100708.50;;;-5.17;99.37
14295;BME280;7231;59.370;18.016;2022-12-07T02:04:03;100708.50;;;-5.17;99.26
14295;BME280;7231;59.370;18.016;2022-12-07T02:06:32;100710.28;;;-5.16;99.29
14295;BME280;7231;59.370;18.016;2022-12-07T02:09:00;100695.84;;;-5.26;99.29
14295;BME280;7231;59.370;18.016;2022-12-07T02:11:28;100677.41;;;-5.32;99.13
14295;BME280;7231;59.370;18.016;2022-12-07T02:13:57;100692.66;;;-5.24;99.36
14295;BME280;7231;59.370;18.016;2022-12-07T02:16:31;100692.25;;;-5.18;99.49
14295;BME280;7231;59.370;18.016;2022-12-07T02:19:58;100689.97;;;-5.15;99.29
14295;BME280;7231;59.370;18.016;2022-12-07T02:25:45;100695.22;;;-5.13;98.89
14295;BME280;7231;59.370;18.016;2022-12-07T02:28:27;100706.97;;;-5.15;98.93
14295;BME280;7231;59.370;18.016;2022-12-07T02:31:02;100706.06;;;-5.16;99.30
14295;BME280;7231;59.370;18.016;2022-12-07T02:33:36;100711.72;;;-5.20;99.02
14295;BME280;7231;59.370;18.016;2022-12-07T02:36:07;100662.53;;;-5.46;99.09
14295;BME280;7231;59.370;18.016;2022-12-07T02:38:40;100702.75;;;-5.25;98.99
14295;BME280;7231;59.370;18.016;2022-12-07T02:41:12;100682.75;;;-5.39;98.74
14295;BME280;7231;59.370;18.016;2022-12-07T02:43:46;100690.31;;;-5.31;99.23
14295;BME280;7231;59.370;18.016;2022-12-07T02:46:20;100687.63;;;-5.32;99.27
14295;BME280;7231;59.370;18.016;2022-12-07T02:48:51;100685.56;;;-5.36;98.84
14295;BME280;7231;59.370;18.016;2022-12-07T02:51:19;100691.84;;;-5.33;99.04
14295;BME280;7231;59.370;18.016;2022-12-07T02:53:48;100694.69;;;-5.30;99.11
14295;BME280;7231;59.370;18.016;2022-12-07T02:56:22;100687.91;;;-5.29;99.13
14295;BME280;7231;59.370;18.016;2022-12-07T02:59:02;100688.81;;;-5.29;99.18
14295;BME280;7231;59.370;18.016;2022-12-07T03:01:41;100683.69;;;-5.29;99.19
14295;BME280;7231;59.370;18.016;2022-12-07T03:04:24;100688.66;;;-5.30;99.49
14295;BME280;7231;59.370;18.016;2022-12-07T03:07:03;100683.41;;;-5.32;99.30
14295;BME280;7231;59.370;18.016;2022-12-07T03:09:36;100674.84;;;-5.32;99.16
14295;BME280;7231;59.370;18.016;2022-12-07T03:12:09;100681.00;;;-5.30;99.48
14295;BME280;7231;59.370;18.016;2022-12-07T03:14:46;100672.56;;;-5.29;99.62
14295;BME280;7231;59.370;18.016;2022-12-07T03:17:21;100677.69;;;-5.29;99.65
14295;BME280;7231;59.370;18.016;2022-12-07T03:20:00;100677.69;;;-5.29;99.29
14295;BME280;7231;59.370;18.016;2022-12-07T03:22:32;100674.09;;;-5.31;99.42
14295;BME280;7231;59.370;18.016;2022-12-07T03:25:04;100668.44;;;-5.37;99.24
14295;BME280;7231;59.370;18.016;2022-12-07T03:27:39;100677.56;;;-5.31;99.27
14295;BME280;7231;59.370;18.016;2022-12-07T03:30:10;100663.06;;;-5.40;99.38
14295;BME280;7231;59.370;18.016;2022-12-07T03:32:44;100671.13;;;-5.36;99.34
14295;BME280;7231;59.370;18.016;2022-12-07T03:35:17;100672.66;;;-5.38;99.43
14295;BME280;7231;59.370;18.016;2022-12-07T03:37:50;100674.69;;;-5.44;99.12
14295;BME280;7231;59.370;18.016;2022-12-07T03:40:23;100677.50;;;-5.41;99.56
14295;BME280;7231;59.370;18.016;2022-12-07T03:42:54;100670.59;;;-5.42;99.55
14295;BME280;7231;59.370;18.016;2022-12-07T03:45:26;100669.84;;;-5.41;99.71
14295;BME280;7231;59.370;18.016;2022-12-07T03:48:05;100683.78;;;-5.37;99.59
14295;BME280;7231;59.370;18.016;2022-12-07T03:50:42;100676.25;;;-5.36;99.50
14295;BME280;7231;59.370;18.016;2022-12-07T03:53:15;100673.56;;;-5.37;99.92
14295;BME280;7231;59.370;18.016;2022-12-07T03:55:46;100649.91;;;-5.45;99.65
14295;BME280;7231;59.370;18.016;2022-12-07T03:58:18;100653.63;;;-5.41;99.76
14295;BME280;7231;59.370;18.016;2022-12-07T04:00:47;100637.63;;;-5.49;100.00
14295;BME280;7231;59.370;18.016;2022-12-07T04:03:17;100648.28;;;-5.34;99.77
14295;BME280;7231;59.370;18.016;2022-12-07T04:05:45;100644.19;;;-5.32;99.70
14295;BME280;7231;59.370;18.016;2022-12-07T04:08:13;100637.28;;;-5.33;100.00
14295;BME280;7231;59.370;18.016;2022-12-07T04:10:41;100617.97;;;-5.40;99.99
14295;BME280;7231;59.370;18.016;2022-12-07T04:13:09;100642.03;;;-5.28;100.00
14295;BME280;7231;59.370;18.016;2022-12-07T04:15:37;100592.53;;;-5.48;99.86
14295;BME280;7231;59.370;18.016;2022-12-07T04:18:05;100630.44;;;-5.24;99.88
14295;BME280;7231;59.370;18.016;2022-12-07T04:20:34;100628.00;;;-5.22;99.80
14295;BME280;7231;59.370;18.016;2022-12-07T04:23:02;100634.00;;;-5.22;100.00
14295;BME280;7231;59.370;18.016;2022-12-07T04:25:30;100622.25;;;-5.20;100.00
14295;BME280;7231;59.370;18.016;2022-12-07T04:27:58;100622.34;;;-5.18;99.84
14295;BME280;7231;59.370;18.016;2022-12-07T04:30:26;100620.06;;;-5.15;99.92
14295;BME280;7231;59.370;18.016;2022-12-07T04:32:54;100620.31;;;-5.12;100.00
14295;BME280;7231;59.370;18.016;2022-12-07T04:35:22;100623.00;;;-5.11;99.82
14295;BME280;7231;59.370;18.016;2022-12-07T04:37:51;100616.25;;;-5.10;100.00
14295;BME280;7231;59.370;18.016;2022-12-07T04:40:19;100621.50;;;-5.09;100.00
14295;BME280;7231;59.370;18.016;2022-12-07T04:42:46;100617.41;;;-5.07;99.95
14295;BME280;7231;59.370;18.016;2022-12-07T04:45:14;100609.59;;;-5.08;99.83
14295;BME280;7231;59.370;18.016;2022-12-07T04:47:42;100605.38;;;-5.08;100.00
14295;BME280;7231;59.370;18.016;2022-12-07T04:50:10;100602.06;;;-5.07;99.96
14295;BME280;7231;59.370;18.016;2022-12-07T04:52:38;100601.44;;;-5.04;99.99
14295;BME280;7231;59.370;18.016;2022-12-07T04:55:08;100599.78;;;-5.04;100.00
14295;BME280;7231;59.370;18.016;2022-12-07T04:57:36;100592.22;;;-5.02;99.89
14295;BME280;7231;59.370;18.016;2022-12-07T05:00:05;100536.50;;;-5.27;100.00
14295;BME280;7231;59.370;18.016;2022-12-07T05:02:33;100582.00;;;-5.02;99.99
14295;BME280;7231;59.370;18.016;2022-12-07T05:05:01;100575.22;;;-5.02;100.00
14295;BME280;7231;59.370;18.016;2022-12-07T05:07:29;100567.31;;;-5.05;100.00
14295;BME280;7231;59.370;18.016;2022-12-07T05:09:57;100578.69;;;-5.01;100.00
14295;BME280;7231;59.370;18.016;2022-12-07T05:12:27;100584.06;;;-4.98;100.00
14295;BME280;7231;59.370;18.016;2022-12-07T05:14:55;100579.84;;;-4.98;100.00
14295;BME280;7231;59.370;18.016;2022-12-07T05:17:23;100589.28;;;-4.97;100.00
14295;BME280;7231;59.370;18.016;2022-12-07T05:19:50;100585.22;;;-4.95;100.00
14295;BME280;7231;59.370;18.016;2022-12-07T05:22:18;100559.50;;;-5.06;99.90
14295;BME280;7231;59.370;18.016;2022-12-07T05:24:46;100580.72;;;-4.97;100.00
14295;BME280;7231;59.370;18.016;2022-12-07T05:27:14;100589.44;;;-4.95;100.00
14295;BME280;7231;59.370;18.016;2022-12-07T05:29:43;100575.75;;;-4.96;100.00
14295;BME280;7231;59.370;18.016;2022-12-07T05:32:11;100572.28;;;-4.96;100.00
14295;BME280;7231;59.370;18.016;2022-12-07T05:34:40;100566.16;;;-4.98;100.00
14295;BME280;7231;59.370;18.016;2022-12-07T05:37:08;100550.41;;;-5.13;99.98
14295;BME280;7231;59.370;18.016;2022-12-07T05:39:35;100570.88;;;-5.03;100.00
14295;BME280;7231;59.370;18.016;2022-12-07T05:42:04;100568.19;;;-5.04;100.00
14295;BME280;7231;59.370;18.016;2022-12-07T05:44:44;100567.03;;;-5.08;100.00
14295;BME280;7231;59.370;18.016;2022-12-07T05:47:13;100545.59;;;-5.20;100.00
14295;BME280;7231;59.370;18.016;2022-12-07T05:49:41;100562.81;;;-5.07;100.00
14295;BME280;7231;59.370;18.016;2022-12-07T05:52:09;100568.06;;;-5.06;100.00
14295;BME280;7231;59.370;18.016;2022-12-07T05:54:37;100563.72;;;-5.07;100.00
14295;BME280;7231;59.370;18.016;2022-12-07T05:57:05;100555.16;;;-5.17;99.96
14295;BME280;7231;59.370;18.016;2022-12-07T05:59:33;100564.09;;;-5.12;99.98
14295;BME280;7231;59.370;18.016;2022-12-07T06:02:03;100559.63;;;-5.15;100.00
14295;BME280;7231;59.370;18.016;2022-12-07T06:04:33;100561.16;;;-5.17;99.81
14295;BME280;7231;59.370;18.016;2022-12-07T06:07:01;100565.38;;;-5.17;100.00
14295;BME280;7231;59.370;18.016;2022-12-07T06:09:29;100567.91;;;-5.17;99.99
14295;BME280;7231;59.370;18.016;2022-12-07T06:11:58;100557.22;;;-5.24;100.00
14295;BME280;7231;59.370;18.016;2022-12-07T06:14:44;100561.69;;;-5.21;100.00
14295;BME280;7231;59.370;18.016;2022-12-07T06:17:14;100520.13;;;-5.49;99.73
14295;BME280;7231;59.370;18.016;2022-12-07T06:19:42;100504.91;;;-5.58;99.46
14295;BME280;7231;59.370;18.016;2022-12-07T06:22:10;100565.66;;;-5.25;99.75
14295;BME280;7231;59.370;18.016;2022-12-07T06:24:39;100556.56;;;-5.31;100.00
14295;BME280;7231;59.370;18.016;2022-12-07T06:27:07;100550.41;;;-5.33;100.00
14295;BME280;7231;59.370;18.016;2022-12-07T06:29:36;100566.91;;;-5.30;99.68
14295;BME280;7231;59.370;18.016;2022-12-07T06:32:04;100572.66;;;-5.32;99.73
14295;BME280;7231;59.370;18.016;2022-12-07T06:34:33;100525.06;;;-5.61;99.75
14295;BME280;7231;59.370;18.016;2022-12-07T06:37:02;100570.59;;;-5.36;99.88
14295;BME280;7231;59.370;18.016;2022-12-07T06:39:30;100587.31;;;-5.40;100.00
14295;BME280;7231;59.370;18.016;2022-12-07T06:41:58;100582.84;;;-5.42;99.57
14295;BME280;7231;59.370;18.016;2022-12-07T06:44:26;100579.53;;;-5.41;99.94
14295;BME280;7231;59.370;18.016;2022-12-07T06:46:54;100564.03;;;-5.53;99.91
14295;BME280;7231;59.370;18.016;2022-12-07T06:49:44;100570.56;;;-5.46;99.70
14295;BME280;7231;59.370;18.016;2022-12-07T06:52:12;100572.88;;;-5.49;99.65
14295;BME280;7231;59.370;18.016;2022-12-07T06:54:40;100549.19;;;-5.67;99.92
14295;BME280;7231;59.370;18.016;2022-12-07T06:57:07;100573.63;;;-5.50;100.00
14295;BME280;7231;59.370;18.016;2022-12-07T06:59:35;100575.53;;;-5.48;99.87
14295;BME280;7231;59.370;18.016;2022-12-07T07:02:03;100585.63;;;-5.49;99.81
14295;BME280;7231;59.370;18.016;2022-12-07T07:04:32;100589.09;;;-5.49;100.00
14295;BME280;7231;59.370;18.016;2022-12-07T07:07:02;100576.63;;;-5.65;99.84
14295;BME280;7231;59.370;18.016;2022-12-07T07:09:29;100573.44;;;-5.62;100.00
14295;BME280;7231;59.370;18.016;2022-12-07T07:11:57;100598.53;;;-5.48;100.00
14295;BME280;7231;59.370;18.016;2022-12-07T07:14:25;100581.78;;;-5.54;99.74
14295;BME280;7231;59.370;18.016;2022-12-07T07:16:53;100595.09;;;-5.48;100.00
14295;BME280;7231;59.370;18.016;2022-12-07T07:19:21;100591.63;;;-5.49;100.00
14295;BME280;7231;59.370;18.016;2022-12-07T07:21:49;100605.03;;;-5.51;99.86
14295;BME280;7231;59.370;18.016;2022-12-07T07:24:19;100603.13;;;-5.54;99.84
14295;BME280;7231;59.370;18.016;2022-12-07T07:26:47;100601.59;;;-5.52;99.95
14295;BME280;7231;59.370;18.016;2022-12-07T07:29:15;100568.19;;;-5.74;100.00
14295;BME280;7231;59.370;18.016;2022-12-07T07:31:42;100590.69;;;-5.60;99.88
14295;BME280;7231;59.370;18.016;2022-12-07T07:34:10;100598.13;;;-5.52;99.99
14295;BME280;7231;59.370;18.016;2022-12-07T07:36:39;100603.13;;;-5.54;99.92
14295;BME280;7231;59.370;18.016;2022-12-07T07:39:07;100571.91;;;-5.70;99.98
14295;BME280;7231;59.370;18.016;2022-12-07T07:41:36;100601.31;;;-5.55;100.00
14295;BME280;7231;59.370;18.016;2022-12-07T07:44:04;100594.41;;;-5.56;100.00
14295;BME280;7231;59.370;18.016;2022-12-07T07:46:32;100594.41;;;-5.56;99.98
14295;BME280;7231;59.370;18.016;2022-12-07T07:49:00;100584.97;;;-5.57;100.00
14295;BME280;7231;59.370;18.016;2022-12-07T07:51:28;100579.72;;;-5.59;100.00
14295;BME280;7231;59.370;18.016;2022-12-07T07:53:56;100586.75;;;-5.56;100.00
14295;BME280;7231;59.370;18.016;2022-12-07T07:56:24;100588.69;;;-5.53;100.00
14295;BME280;7231;59.370;18.016;2022-12-07T07:58:54;100583.72;;;-5.52;100.00
14295;BME280;7231;59.370;18.016;2022-12-07T08:01:22;100591.63;;;-5.49;100.00
14295;BME280;7231;59.370;18.016;2022-12-07T08:03:50;100587.56;;;-5.47;100.00
14295;BME280;7231;59.370;18.016;2022-12-07T08:06:17;100589.34;;;-5.46;100.00
14295;BME280;7231;59.370;18.016;2022-12-07T08:08:45;100586.94;;;-5.44;100.00
14295;BME280;7231;59.370;18.016;2022-12-07T08:11:13;100591.28;;;-5.43;100.00
14295;BME280;7231;59.370;18.016;2022-12-07T08:13:41;100578.09;;;-5.48;100.00
14295;BME280;7231;59.370;18.016;2022-12-07T08:16:11;100570.03;;;-5.52;100.00
14295;BME280;7231;59.370;18.016;2022-12-07T08:18:40;100589.88;;;-5.40;100.00
14295;BME280;7231;59.370;18.016;2022-12-07T08:21:11;100583.09;;;-5.39;100.00
14295;BME280;7231;59.370;18.016;2022-12-07T08:23:39;100581.31;;;-5.40;100.00
14295;BME280;7231;59.370;18.016;2022-12-07T08:26:09;100564.56;;;-5.47;100.00
14295;BME280;7231;59.370;18.016;2022-12-07T08:28:38;100580.94;;;-5.35;100.00
14295;BME280;7231;59.370;18.016;2022-12-07T08:31:08;100578.53;;;-5.33;100.00
14295;BME280;7231;59.370;18.016;2022-12-07T08:33:39;100539.03;;;-5.47;100.00
14295;BME280;7231;59.370;18.016;2022-12-07T08:36:10;100578.41;;;-5.25;100.00
14295;BME280;7231;59.370;18.016;2022-12-07T08:38:40;100565.78;;;-5.23;100.00
14295;BME280;7231;59.370;18.016;2022-12-07T08:41:29;100571.91;;;-5.21;100.00
14295;BME280;7231;59.370;18.016;2022-12-07T08:43:57;100568.69;;;-5.18;100.00
14295;BME280;7231;59.370;18.016;2022-12-07T08:46:28;100482.53;;;-5.60;100.00
14295;BME280;7231;59.370;18.016;2022-12-07T08:49:05;100566.53;;;-5.14;100.00
14295;BME280;7231;59.370;18.016;2022-12-07T08:51:33;100564.72;;;-5.15;100.00
14295;BME280;7231;59.370;18.016;2022-12-07T08:54:04;100571.50;;;-5.15;100.00
14295;BME280;7231;59.370;18.016;2022-12-07T08:56:34;100570.59;;;-5.16;100.00
14295;BME280;7231;59.370;18.016;2022-12-07T08:59:03;100569.84;;;-5.15;100.00
14295;BME280;7231;59.370;18.016;2022-12-07T09:01:32;100563.97;;;-5.14;100.00
14295;BME280;7231;59.370;18.016;2022-12-07T09:04:00;100566.03;;;-5.10;100.00
14295;BME280;7231;59.370;18.016;2022-12-07T09:06:29;100543.38;;;-5.15;100.00
14295;BME280;7231;59.370;18.016;2022-12-07T09:08:59;100562.81;;;-5.07;100.00
14295;BME280;7231;59.370;18.016;2022-12-07T09:11:28;100557.97;;;-5.04;100.00
14295;BME280;7231;59.370;18.016;2022-12-07T09:13:56;100558.09;;;-5.03;100.00
14295;BME280;7231;59.370;18.016;2022-12-07T09:16:24;100554.00;;;-5.01;100.00
14295;BME280;7231;59.370;18.016;2022-12-07T09:18:52;100550.44;;;-5.03;100.00
14295;BME280;7231;59.370;18.016;2022-12-07T09:21:20;100558.88;;;-4.94;100.00
14295;BME280;7231;59.370;18.016;2022-12-07T09:23:49;100554.91;;;-4.90;100.00
14295;BME280;7231;59.370;18.016;2022-12-07T09:26:17;100552.75;;;-4.85;100.00
14295;BME280;7231;59.370;18.016;2022-12-07T09:28:45;100542.38;;;-4.87;100.00
14295;BME280;7231;59.370;18.016;2022-12-07T09:31:14;100550.97;;;-4.76;100.00
14295;BME280;7231;59.370;18.016;2022-12-07T09:33:55;100547.88;;;-4.72;100.00
14295;BME280;7231;59.370;18.016;2022-12-07T09:36:23;100533.31;;;-4.83;100.00
14295;BME280;7231;59.370;18.016;2022-12-07T09:38:53;100548.13;;;-4.69;100.00
14295;BME280;7231;59.370;18.016;2022-12-07T09:41:22;100551.84;;;-4.55;100.00
14295;BME280;7231;59.370;18.016;2022-12-07T09:43:51;100549.53;;;-4.52;100.00
14295;BME280;7231;59.370;18.016;2022-12-07T09:46:20;100547.72;;;-4.43;100.00
14295;BME280;7231;59.370;18.016;2022-12-07T09:48:49;100545.56;;;-4.39;100.00
14295;BME280;7231;59.370;18.016;2022-12-07T09:51:19;100543.25;;;-4.36;100.00
14295;BME280;7231;59.370;18.016;2022-12-07T09:53:53;100539.91;;;-4.35;100.00
14295;BME280;7231;59.370;18.016;2022-12-07T09:56:22;100543.50;;;-4.33;100.00
14295;BME280;7231;59.370;18.016;2022-12-07T09:58:58;100543.09;;;-4.27;100.00
14295;BME280;7231;59.370;18.016;2022-12-07T10:01:29;100527.13;;;-4.35;100.00
14295;BME280;7231;59.370;18.016;2022-12-07T10:04:06;100546.16;;;-4.21;100.00
14295;BME280;7231;59.370;18.016;2022-12-07T10:06:37;100539.25;;;-4.22;100.00
14295;BME280;7231;59.370;18.016;2022-12-07T10:09:10;100537.59;;;-4.21;100.00
14295;BME280;7231;59.370;18.016;2022-12-07T10:12:01;100532.34;;;-4.23;100.00
14295;BME280;7231;59.370;18.016;2022-12-07T10:14:31;100511.63;;;-4.36;100.00
14295;BME280;7231;59.370;18.016;2022-12-07T10:17:29;100516.88;;;-4.35;100.00
14295;BME280;7231;59.370;18.016;2022-12-07T10:20:16;100525.06;;;-4.29;100.00
14295;BME280;7231;59.370;18.016;2022-12-07T10:23:00;100538.09;;;-4.26;99.90
14295;BME280;7231;59.370;18.016;2022-12-07T10:25:31;100506.41;;;-4.38;99.78
14295;BME280;7231;59.370;18.016;2022-12-07T10:28:03;100536.56;;;-4.23;100.00
14295;BME280;7231;59.370;18.016;2022-12-07T10:30:54;100521.31;;;-4.22;100.00
14295;BME280;7231;59.370;18.016;2022-12-07T10:33:32;100521.56;;;-4.19;100.00
14295;BME280;7231;59.370;18.016;2022-12-07T10:36:09;100522.59;;;-4.17;100.00
14295;BME280;7231;59.370;18.016;2022-12-07T10:38:45;100502.91;;;-4.28;100.00
14295;BME280;7231;59.370;18.016;2022-12-07T10:41:15;100518.84;;;-4.10;100.00
14295;BME280;7231;59.370;18.016;2022-12-07T10:43:47;100504.41;;;-4.10;99.97
14295;BME280;7231;59.370;18.016;2022-12-07T10:52:30;100495.00;;;-3.99;100.00
14295;BME280;7231;59.370;18.016;2022-12-07T10:55:11;100487.31;;;-3.99;99.73
14295;BME280;7231;59.370;18.016;2022-12-07T10:57:55;100488.72;;;-3.93;99.94
14295;BME280;7231;59.370;18.016;2022-12-07T11:00:31;100483.81;;;-3.89;100.00
14295;BME280;7231;59.370;18.016;2022-12-07T11:03:29;100477.28;;;-3.86;99.95
14295;BME280;7231;59.370;18.016;2022-12-07T11:06:11;100415.84;;;-4.18;99.97
14295;BME280;7231;59.370;18.016;2022-12-07T11:08:57;100471.38;;;-3.85;99.61
14295;BME280;7231;59.370;18.016;2022-12-07T11:11:33;100452.56;;;-3.85;99.58
14295;BME280;7231;59.370;18.016;2022-12-07T11:14:11;100469.41;;;-3.77;99.73
14295;BME280;7231;59.370;18.016;2022-12-07T11:16:52;100466.22;;;-3.75;99.40
14295;BME280;7231;59.370;18.016;2022-12-07T11:19:41;100463.88;;;-3.72;99.75
14295;BME280;7231;59.370;18.016;2022-12-07T11:22:21;100463.22;;;-3.69;99.72
14295;BME280;7231;59.370;18.016;2022-12-07T11:24:59;100453.22;;;-3.66;99.14
14295;BME280;7231;59.370;18.016;2022-12-07T11:27:35;100451.00;;;-3.62;99.01
14295;BME280;7231;59.370;18.016;2022-12-07T11:30:13;100441.00;;;-3.58;99.07
14295;BME280;7231;59.370;18.016;2022-12-07T11:32:56;100437.00;;;-3.55;99.51
14295;BME280;7231;59.370;18.016;2022-12-07T11:35:37;100444.03;;;-3.52;98.92
14295;BME280;7231;59.370;18.016;2022-12-07T11:38:11;100398.84;;;-3.74;99.18
14295;BME280;7231;59.370;18.016;2022-12-07T11:40:43;100403.88;;;-3.64;99.01
14295;BME280;7231;59.370;18.016;2022-12-07T11:43:19;100299.78;;;-4.18;98.82
14295;BME280;7231;59.370;18.016;2022-12-07T11:45:58;100433.81;;;-3.41;98.75
14295;BME280;7231;59.370;18.016;2022-12-07T11:48:33;100433.16;;;-3.38;98.67
14295;BME280;7231;59.370;18.016;2022-12-07T11:51:02;100427.81;;;-3.41;98.58
14295;BME280;7231;59.370;18.016;2022-12-07T11:53:35;100411.41;;;-3.43;98.58
14295;BME280;7231;59.370;18.016;2022-12-07T11:56:09;100428.50;;;-3.32;98.17
14295;BME280;7231;59.370;18.016;2022-12-07T11:58:48;100410.22;;;-3.37;98.40
14295;BME280;7231;59.370;18.016;2022-12-07T12:01:31;100369.50;;;-3.55;97.89
14295;BME280;7231;59.370;18.016;2022-12-07T12:04:07;100401.75;;;-3.36;98.05
14295;BME280;7231;59.370;18.016;2022-12-07T12:06:44;100402.09;;;-3.31;97.73
14295;BME280;7231;59.370;18.016;2022-12-07T12:09:15;100400.53;;;-3.29;97.66
14295;BME280;7231;59.370;18.016;2022-12-07T12:12:16;100397.19;;;-3.28;97.62
14295;BME280;7231;59.370;18.016;2022-12-07T12:15:19;100396.53;;;-3.25;97.72
14295;BME280;7231;59.370;18.016;2022-12-07T12:18:06;100386.94;;;-3.28;97.61
14295;BME280;7231;59.370;18.016;2022-12-07T12:20:41;100392.53;;;-3.22;97.63
14295;BME280;7231;59.370;18.016;2022-12-07T12:23:13;100392.66;;;-3.20;97.16
14295;BME280;7231;59.370;18.016;2022-12-07T12:25:45;100391.88;;;-3.19;97.38
14295;BME280;7231;59.370;18.016;2022-12-07T12:28:22;100385.97;;;-3.18;97.30
14295;BME280;7231;59.370;18.016;2022-12-07T12:31:12;100376.59;;;-3.18;97.28
14295;BME280;7231;59.370;18.016;2022-12-07T12:33:46;100383.84;;;-3.12;97.14
14295;BME280;7231;59.370;18.016;2022-12-07T12:36:23;100367.13;;;-3.19;97.20
14295;BME280;7231;59.370;18.016;2022-12-07T12:39:09;100346.59;;;-3.31;96.82
14295;BME280;7231;59.370;18.016;2022-12-07T12:42:12;100379.84;;;-3.09;96.57
14295;BME280;7231;59.370;18.016;2022-12-07T12:45:19;100381.19;;;-3.14;96.54
14295;BME280;7231;59.370;18.016;2022-12-07T12:47:57;100381.28;;;-3.12;96.23
14295;BME280;7231;59.370;18.016;2022-12-07T12:50:29;100372.47;;;-3.16;96.49
14295;BME280;7231;59.370;18.016;2022-12-07T12:53:05;100378.16;;;-3.20;95.97
14295;BME280;7231;59.370;18.016;2022-12-07T12:58:43;100351.69;;;-3.42;96.10
14295;BME280;7231;59.370;18.016;2022-12-07T13:01:40;100377.59;;;-3.28;95.74
14295;BME280;7231;59.370;18.016;2022-12-07T13:04:29;100377.25;;;-3.32;95.59
14295;BME280;7231;59.370;18.016;2022-12-07T13:07:03;100378.03;;;-3.33;95.47
14295;BME280;7231;59.370;18.016;2022-12-07T13:09:33;100368.63;;;-3.44;95.77
14295;BME280;7231;59.370;18.016;2022-12-07T13:12:04;100383.47;;;-3.40;95.69
14295;BME280;7231;59.370;18.016;2022-12-07T13:14:41;100336.69;;;-3.71;95.54
14295;BME280;7231;59.370;18.016;2022-12-07T13:17:11;100384.78;;;-3.45;95.68
14295;BME280;7231;59.370;18.016;2022-12-07T13:19:57;100385.56;;;-3.46;95.47
14295;BME280;7231;59.370;18.016;2022-12-07T13:22:54;100379.19;;;-3.51;95.55
14295;BME280;7231;59.370;18.016;2022-12-07T13:25:33;100385.09;;;-3.52;95.46